Time;durP1;ratioP1;P1;durP2;ratioP2;P2;SDS_P1;SDS_P2;PMS_P1;PMS_P2;Temp;Humidity;BMP_temperature;BMP_pressure;BME280_temperature;BME280_humidity;BME280_pressure;Samples;Min_cycle;Max_cycle;Signal;HPM_P1;HPM_P2
2022/11/30 00:01:31;;;;;;;44.30;16.77;;;8.00;11.20;;;;;;5079029;28;20544;-79
2022/11/30 00:04:01;;;;;;;46.93;16.70;;;8.10;7.80;;;;;;5075429;28;20433;-79
2022/11/30 00:06:31;;;;;;;45.70;16.50;;;8.10;7.90;;;;;;5081686;28;20538;-79
2022/11/30 00:08:57;;;;;;;46.63;16.40;;;8.10;6.80;;;;;;5096523;28;20772;-79
2022/11/30 00:11:27;;;;;;;43.77;15.87;;;8.10;6.00;;;;;;5083163;28;20417;-79
2022/11/30 00:14:07;;;;;;;40.50;16.43;;;8.20;5.60;;;;;;5096595;28;20174;-79
2022/11/30 00:17:07;;;;;;;59.50;17.27;;;8.20;6.40;;;;;;5080535;28;20416;-79
2022/11/30 00:19:33;;;;;;;42.87;17.43;;;8.20;5.30;;;;;;5077233;28;20480;-79
2022/11/30 00:22:07;;;;;;;75.57;16.87;;;8.20;6.00;;;;;;5087845;28;20522;-79
2022/11/30 00:24:37;;;;;;;45.33;17.07;;;8.20;7.30;;;;;;5076551;28;20171;-79
2022/11/30 00:27:19;;;;;;;59.07;16.93;;;8.30;7.60;;;;;;5094225;28;20441;-79
2022/11/30 00:29:45;;;;;;;44.80;15.60;;;8.20;8.70;;;;;;5079787;28;20473;-79
2022/11/30 00:32:11;;;;;;;50.17;15.43;;;8.10;7.50;;;;;;5083774;28;20428;-79
2022/11/30 00:35:19;;;;;;;43.73;16.60;;;8.10;7.90;;;;;;5089597;28;20190;-79
2022/11/30 00:44:28;;;;;;;42.37;16.00;;;8.10;8.10;;;;;;5096818;28;20388;-83
2022/11/30 00:47:43;;;;;;;45.37;16.73;;;8.10;8.80;;;;;;5089912;28;20959;-83
2022/11/30 00:50:19;;;;;;;50.77;16.17;;;8.10;8.40;;;;;;5078120;28;20250;-83
2022/11/30 00:53:01;;;;;;;47.00;15.47;;;8.10;9.40;;;;;;5088459;28;20970;-79
2022/11/30 00:55:37;;;;;;;43.43;16.73;;;8.20;9.80;;;;;;5075874;28;20900;-79
2022/11/30 00:58:43;;;;;;;39.43;16.93;;;8.10;9.30;;;;;;5075829;28;20399;-79
2022/11/30 01:01:37;;;;;;;42.50;14.33;;;8.20;8.30;;;;;;5075896;28;20429;-79
2022/11/30 01:04:20;;;;;;;36.83;15.70;;;8.10;7.70;;;;;;5080519;28;20784;-79
2022/11/30 01:06:49;;;;;;;46.87;16.77;;;8.10;9.40;;;;;;5077892;28;20461;-80
2022/11/30 01:09:25;;;;;;;41.17;16.00;;;8.20;8.80;;;;;;5083279;28;20416;-79
2022/11/30 01:12:01;;;;;;;47.83;15.13;;;8.10;9.10;;;;;;5079807;28;20503;-79
2022/11/30 01:14:31;;;;;;;38.43;16.43;;;8.10;10.00;;;;;;5084639;28;20404;-79
2022/11/30 01:17:01;;;;;;;38.93;13.73;;;8.20;9.50;;;;;;5093857;28;20954;-79
2022/11/30 01:19:27;;;;;;;31.70;14.20;;;8.30;9.00;;;;;;5095961;28;20399;-79
2022/11/30 01:22:07;;;;;;;38.80;14.70;;;8.30;7.30;;;;;;5075577;28;20433;-80
2022/11/30 01:24:37;;;;;;;38.30;15.30;;;8.40;6.80;;;;;;5088632;28;20672;-78
2022/11/30 01:27:07;;;;;;;37.30;13.93;;;8.30;6.50;;;;;;5078240;28;20479;-79
2022/11/30 01:29:33;;;;;;;43.33;15.60;;;8.40;5.70;;;;;;5083759;28;21008;-79
2022/11/30 01:31:59;;;;;;;44.73;15.80;;;8.30;7.20;;;;;;5080592;28;20429;-79
2022/11/30 01:34:24;;;;;;;45.47;16.13;;;8.30;6.30;;;;;;5080939;28;20227;-79
2022/11/30 01:36:55;;;;;;;53.40;14.87;;;8.40;6.50;;;;;;5081850;28;20179;-80
2022/11/30 01:39:32;;;;;;;42.60;15.20;;;8.50;6.30;;;;;;5075168;28;20646;-79
2022/11/30 01:42:02;;;;;;;38.60;15.83;;;8.30;6.10;;;;;;5090881;28;20416;-79
2022/11/30 01:44:31;;;;;;;32.37;15.33;;;8.30;8.70;;;;;;5087482;28;20437;-79
2022/11/30 01:47:08;;;;;;;40.30;14.80;;;8.30;5.20;;;;;;5073456;28;20460;-79
2022/11/30 01:49:50;;;;;;;34.97;14.83;;;8.40;5.30;;;;;;5074993;28;20865;-79
2022/11/30 01:52:50;;;;;;;45.10;16.37;;;8.40;3.10;;;;;;5081479;28;20902;-83
2022/11/30 01:58:38;;;;;;;29.20;14.23;;;8.40;2.90;;;;;;5095317;28;20371;-83
2022/11/30 02:07:48;;;;;;;40.13;14.77;;;8.40;3.10;;;;;;5089287;28;20462;-83
2022/11/30 02:17:13;;;;;;;36.67;14.40;;;8.40;3.70;;;;;;5094921;28;20795;-83
2022/11/30 02:23:40;;;;;;;31.07;13.60;;;8.40;8.50;;;;;;5078943;28;20558;-79
2022/11/30 02:26:37;;;;;;;45.00;15.33;;;8.40;4.90;;;;;;5087280;28;20543;-79
2022/11/30 02:29:15;;;;;;;35.50;15.57;;;8.40;4.20;;;;;;5085528;28;20558;-79
2022/11/30 02:32:02;;;;;;;36.63;14.97;;;8.40;2.50;;;;;;5081148;28;20408;-79
2022/11/30 02:37:52;;;;;;;39.83;15.37;;;8.40;2.00;;;;;;5074049;28;20416;-78
2022/11/30 02:40:37;;;;;;;36.10;12.70;;;8.40;3.90;;;;;;5087421;28;20413;-79
2022/11/30 02:43:23;;;;;;;33.40;14.73;;;8.30;4.90;;;;;;5073917;28;20474;-79
2022/11/30 02:46:14;;;;;;;39.47;15.03;;;8.40;5.50;;;;;;5075312;28;20457;-79
2022/11/30 02:48:55;;;;;;;32.33;15.00;;;8.40;4.70;;;;;;5079193;28;20447;-79
2022/11/30 02:51:24;;;;;;;31.13;13.90;;;8.40;3.00;;;;;;5081738;28;20455;-79
2022/11/30 02:53:56;;;;;;;27.47;13.00;;;8.40;2.70;;;;;;5082722;28;20789;-80
2022/11/30 02:56:38;;;;;;;48.50;14.80;;;8.40;2.40;;;;;;5085797;28;20857;-79
2022/11/30 02:59:25;;;;;;;38.67;13.30;;;8.40;3.00;;;;;;5087101;28;20415;-79
2022/11/30 03:02:01;;;;;;;28.70;13.57;;;8.40;3.40;;;;;;5072433;28;21048;-79
2022/11/30 03:05:07;;;;;;;33.30;14.63;;;8.40;3.00;;;;;;5087215;28;20919;-79
2022/11/30 03:07:38;;;;;;;28.70;14.17;;;8.50;2.40;;;;;;5082820;28;20437;-80
2022/11/30 03:10:05;;;;;;;40.33;14.03;;;8.40;2.60;;;;;;5072423;28;20417;-79
2022/11/30 03:12:37;;;;;;;31.30;14.13;;;8.40;2.90;;;;;;5089606;28;20412;-79
2022/11/30 03:15:08;;;;;;;30.50;14.10;;;8.40;3.80;;;;;;5088602;28;20463;-79
2022/11/30 03:17:33;;;;;;;34.47;13.50;;;8.40;4.80;;;;;;5077567;28;20472;-79
2022/11/30 03:19:59;;;;;;;32.60;13.90;;;8.40;5.20;;;;;;5084977;28;20455;-79
2022/11/30 03:22:25;;;;;;;32.17;13.70;;;8.40;4.90;;;;;;5074611;28;20273;-79
2022/11/30 03:25:43;;;;;;;38.20;15.00;;;8.50;3.90;;;;;;5085764;28;20199;-79
2022/11/30 03:28:09;;;;;;;37.57;15.17;;;8.50;2.80;;;;;;5077772;28;20439;-79
2022/11/30 03:30:50;;;;;;;28.83;13.03;;;8.50;1.40;;;;;;5077773;28;20457;-79
2022/11/30 03:33:43;;;;;;;45.70;13.93;;;8.50;2.40;;;;;;5092670;28;20231;-79
2022/11/30 03:36:26;;;;;;;34.90;13.60;;;8.50;3.00;;;;;;5081169;28;20428;-79
2022/11/30 03:38:55;;;;;;;35.20;14.20;;;8.50;1.40;;;;;;5077953;28;20397;-79
2022/11/30 03:41:21;;;;;;;33.00;13.80;;;8.50;1.40;;;;;;5090927;28;20417;-79
2022/11/30 03:43:56;;;;;;;41.10;13.90;;;8.50;1.80;;;;;;5086681;28;20438;-79
2022/11/30 03:46:22;;;;;;;35.17;14.27;;;8.50;2.50;;;;;;5077189;28;20201;-79
2022/11/30 03:49:19;;;;;;;42.60;13.00;;;8.50;3.10;;;;;;5092861;28;20434;-79
2022/11/30 03:51:55;;;;;;;32.93;12.60;;;8.50;3.20;;;;;;5080969;28;20445;-79
2022/11/30 03:57:43;;;;;;;35.10;12.20;;;8.50;3.50;;;;;;5097742;28;20375;-84
2022/11/30 04:03:31;;;;;;;35.50;13.07;;;8.50;4.00;;;;;;5083608;28;20189;-83
2022/11/30 04:09:19;;;;;;;29.30;12.93;;;8.50;2.40;;;;;;5090650;28;20412;-79
2022/11/30 04:12:19;;;;;;;29.27;12.47;;;8.50;2.60;;;;;;5080436;28;20830;-79
2022/11/30 04:14:45;;;;;;;27.10;11.03;;;8.50;4.10;;;;;;5083248;28;20194;-79
2022/11/30 04:17:13;;;;;;;27.43;12.27;;;8.40;4.20;;;;;;5094039;28;20420;-79
2022/11/30 04:20:02;;;;;;;30.50;12.43;;;8.50;4.20;;;;;;5089284;28;20775;-79
2022/11/30 04:29:11;;;;;;;43.17;13.30;;;8.50;2.90;;;;;;5076604;28;20899;-83
2022/11/30 04:41:42;;;;;;;39.77;12.90;;;8.50;4.80;;;;;;5096952;28;20372;-83
2022/11/30 04:44:55;;;;;;;26.50;12.40;;;8.50;6.40;;;;;;5082831;28;20856;-83
2022/11/30 04:54:08;;;;;;;40.13;12.60;;;8.50;6.90;;;;;;5089493;28;20451;-79
2022/11/30 04:56:49;;;;;;;27.20;12.37;;;8.60;7.40;;;;;;5085423;28;20478;-79
2022/11/30 04:59:37;;;;;;;33.23;12.60;;;8.60;7.80;;;;;;5085711;28;20931;-79
2022/11/30 05:02:14;;;;;;;48.20;13.83;;;8.60;7.80;;;;;;5092327;28;20434;-79
2022/11/30 05:04:50;;;;;;;28.70;12.50;;;8.70;8.60;;;;;;5081686;28;20508;-79
2022/11/30 05:07:32;;;;;;;33.97;12.77;;;8.70;8.30;;;;;;5085166;28;20951;-79
2022/11/30 05:10:03;;;;;;;33.47;12.50;;;8.70;7.80;;;;;;5090733;28;20439;-79
2022/11/30 05:12:38;;;;;;;32.70;13.53;;;8.70;10.50;;;;;;5082868;28;20419;-79
2022/11/30 05:15:32;;;;;;;45.50;12.80;;;8.80;7.00;;;;;;5075737;28;20417;-79
2022/11/30 05:18:19;;;;;;;32.97;12.33;;;8.80;5.40;;;;;;5082022;28;20759;-79
2022/11/30 05:20:50;;;;;;;28.60;12.13;;;8.80;4.00;;;;;;5084285;28;20511;-79
2022/11/30 05:23:45;;;;;;;42.73;14.10;;;8.80;4.80;;;;;;5086447;28;20475;-80
2022/11/30 05:26:10;;;;;;;30.83;12.93;;;8.80;5.60;;;;;;5082019;28;20457;-80
2022/11/30 05:28:36;;;;;;;34.67;13.43;;;8.80;4.70;;;;;;5082104;28;20529;-79
2022/11/30 05:34:24;;;;;;;28.30;11.33;;;8.80;4.10;;;;;;5074949;28;20222;-79
2022/11/30 05:36:49;;;;;;;34.23;12.80;;;8.80;3.30;;;;;;5075062;28;20417;-79
2022/11/30 05:39:20;;;;;;;38.03;13.23;;;8.90;4.00;;;;;;5079903;28;20193;-77
2022/11/30 05:41:45;;;;;;;27.13;11.43;;;8.80;4.80;;;;;;5090983;28;20182;-74
2022/11/30 05:44:12;;;;;;;39.97;13.83;;;8.90;4.30;;;;;;5080841;28;20782;-77
2022/11/30 05:46:38;;;;;;;43.33;13.13;;;8.90;3.40;;;;;;5076681;28;20202;-73
2022/11/30 05:49:03;;;;;;;49.67;12.33;;;8.80;3.90;;;;;;5077382;28;20429;-73
2022/11/30 05:51:29;;;;;;;42.07;12.47;;;8.80;4.20;;;;;;5080540;28;20265;-73
2022/11/30 05:53:55;;;;;;;35.33;13.00;;;8.80;3.90;;;;;;5077031;28;20175;-72
2022/11/30 05:56:26;;;;;;;31.60;11.90;;;8.90;4.10;;;;;;5084617;28;20422;-72
2022/11/30 05:58:52;;;;;;;31.13;12.03;;;8.90;3.90;;;;;;5086162;28;20193;-73
2022/11/30 06:01:20;;;;;;;35.03;13.53;;;8.90;3.00;;;;;;5079233;28;20821;-72
2022/11/30 06:03:46;;;;;;;36.83;12.10;;;8.90;3.70;;;;;;5079936;28;20178;-73
2022/11/30 06:06:12;;;;;;;39.03;12.40;;;8.90;3.30;;;;;;5078688;28;20555;-72
2022/11/30 06:08:38;;;;;;;35.33;13.80;;;8.90;2.80;;;;;;5092619;28;20428;-72
2022/11/30 06:11:04;;;;;;;40.80;13.70;;;8.90;2.80;;;;;;5081555;28;20424;-72
2022/11/30 06:13:31;;;;;;;39.57;12.63;;;8.90;3.50;;;;;;5081676;28;20178;-74
2022/11/30 06:16:04;;;;;;;44.80;13.70;;;8.90;3.20;;;;;;5074777;28;20588;-72
2022/11/30 06:18:32;;;;;;;31.63;10.83;;;8.90;3.30;;;;;;5084989;28;20480;-72
2022/11/30 06:21:03;;;;;;;34.80;13.00;;;8.90;3.00;;;;;;5088890;28;20440;-73
2022/11/30 06:23:29;;;;;;;43.77;12.97;;;9.00;2.80;;;;;;5081482;28;20767;-72
2022/11/30 06:25:56;;;;;;;32.50;12.40;;;9.00;1.80;;;;;;5086329;28;20587;-72
2022/11/30 06:28:22;;;;;;;30.90;12.30;;;9.00;1.90;;;;;;5079518;28;20432;-72
2022/11/30 06:30:50;;;;;;;31.27;13.70;;;9.00;2.70;;;;;;5074654;28;20440;-72
2022/11/30 06:33:20;;;;;;;27.40;12.37;;;9.00;1.70;;;;;;5081280;28;20441;-71
2022/11/30 06:35:46;;;;;;;33.93;13.87;;;9.00;1.60;;;;;;5080077;28;20482;-71
2022/11/30 06:38:12;;;;;;;38.27;13.87;;;9.00;1.80;;;;;;5076478;28;20989;-72
2022/11/30 06:40:38;;;;;;;36.80;15.47;;;9.00;1.90;;;;;;5078673;28;20416;-72
2022/11/30 06:43:08;;;;;;;36.90;13.73;;;9.00;2.00;;;;;;5093850;28;20412;-72
2022/11/30 06:45:38;;;;;;;46.07;14.57;;;9.00;2.50;;;;;;5084720;28;20934;-72
2022/11/30 06:48:04;;;;;;;45.37;14.47;;;9.00;2.40;;;;;;5074842;28;20417;-72
2022/11/30 06:50:30;;;;;;;44.67;13.53;;;9.00;2.30;;;;;;5073924;28;20429;-70
2022/11/30 06:52:56;;;;;;;39.10;12.90;;;9.00;2.90;;;;;;5077906;28;20430;-71
2022/11/30 06:55:22;;;;;;;30.47;12.60;;;9.10;3.20;;;;;;5078018;28;20257;-70
2022/11/30 06:57:49;;;;;;;30.40;13.80;;;9.10;6.50;;;;;;5089184;28;20453;-71
2022/11/30 07:00:26;;;;;;;47.13;13.60;;;9.10;2.80;;;;;;5083449;28;20433;-72
2022/11/30 07:02:56;;;;;;;36.80;13.40;;;9.10;2.80;;;;;;5073272;28;20417;-71
2022/11/30 07:05:22;;;;;;;42.50;14.47;;;9.10;2.70;;;;;;5082036;28;20577;-71
2022/11/30 07:07:48;;;;;;;34.47;13.20;;;9.10;3.00;;;;;;5078473;28;20432;-72
2022/11/30 07:10:14;;;;;;;55.03;14.20;;;9.10;2.60;;;;;;5086315;28;20698;-71
2022/11/30 07:12:39;;;;;;;35.40;12.87;;;9.10;3.00;;;;;;5074384;28;20521;-71
2022/11/30 07:15:06;;;;;;;32.53;14.70;;;9.10;3.80;;;;;;5080495;28;20440;-71
2022/11/30 07:17:31;;;;;;;50.33;13.00;;;9.20;3.50;;;;;;5073752;28;20266;-72
2022/11/30 07:19:57;;;;;;;30.90;13.90;;;9.20;3.60;;;;;;5078211;28;20499;-71
2022/11/30 07:22:23;;;;;;;34.67;14.20;;;9.20;2.90;;;;;;5075973;28;20175;-71
2022/11/30 07:27:32;;;;;;;32.00;12.43;;;9.20;1.00;;;;;;5074667;28;20665;-71
2022/11/30 07:29:58;;;;;;;37.67;13.53;;;9.20;1.40;;;;;;5086608;28;20445;-71
2022/11/30 07:32:24;;;;;;;39.07;14.60;;;9.30;2.20;;;;;;5086173;28;20621;-71
2022/11/30 07:34:49;;;;;;;44.67;13.70;;;9.30;2.10;;;;;;5075024;28;20281;-72
2022/11/30 07:37:17;;;;;;;46.97;14.83;;;9.30;2.50;;;;;;5083257;28;20224;-70
2022/11/30 07:39:43;;;;;;;34.37;13.93;;;9.30;3.00;;;;;;5085084;28;20185;-70
2022/11/30 07:42:08;;;;;;;36.07;13.70;;;9.30;4.10;;;;;;5083196;28;20413;-71
2022/11/30 07:44:34;;;;;;;36.07;15.00;;;9.30;4.60;;;;;;5075827;28;20638;-70
2022/11/30 07:47:00;;;;;;;41.50;14.40;;;9.30;2.70;;;;;;5073830;28;20199;-70
2022/11/30 07:49:26;;;;;;;34.60;13.73;;;9.30;3.20;;;;;;5078285;28;20175;-70
2022/11/30 07:51:52;;;;;;;32.80;15.00;;;9.40;2.90;;;;;;5076355;28;20429;-70
2022/11/30 07:54:17;;;;;;;44.83;14.20;;;9.40;2.30;;;;;;5086196;28;20553;-70
2022/11/30 07:56:43;;;;;;;35.70;14.73;;;9.40;2.20;;;;;;5079574;28;20761;-70
2022/11/30 07:59:09;;;;;;;31.40;13.83;;;9.40;1.80;;;;;;5073842;28;20539;-71
2022/11/30 08:01:35;;;;;;;28.43;13.60;;;9.50;5.40;;;;;;5071492;28;20201;-71
2022/11/30 08:04:04;;;;;;;34.30;14.60;;;9.50;1.90;;;;;;5075505;28;20255;-70
2022/11/30 08:06:30;;;;;;;31.30;13.73;;;9.50;1.40;;;;;;5076104;28;20453;-70
2022/11/30 08:09:03;;;;;;;31.17;13.50;;;9.50;1.20;;;;;;5071090;28;20938;-70
2022/11/30 08:11:32;;;;;;;25.60;11.80;;;9.60;1.10;;;;;;5076526;28;20424;-69
2022/11/30 08:13:58;;;;;;;32.27;14.03;;;9.60;1.00;;;;;;5073705;28;20408;-70
2022/11/30 08:16:26;;;;;;;33.67;14.00;;;9.60;1.00;;;;;;5072769;28;20444;-70
2022/11/30 08:18:54;;;;;;;26.73;12.47;;;9.60;1.00;;;;;;5071855;28;20934;-70
2022/11/30 08:21:20;;;;;;;32.03;13.37;;;9.70;1.00;;;;;;5084016;28;20449;-70
2022/11/30 08:23:48;;;;;;;26.10;12.40;;;9.70;1.00;;;;;;5085955;28;20432;-70
2022/11/30 08:26:16;;;;;;;36.33;13.93;;;9.80;1.00;;;;;;5094257;28;20463;-69
2022/11/30 08:28:44;;;;;;;27.90;12.63;;;9.80;1.00;;;;;;5086784;28;20960;-70
2022/11/30 08:31:12;;;;;;;30.40;13.20;;;9.80;1.00;;;;;;5086416;28;20930;-70
2022/11/30 08:33:38;;;;;;;27.47;13.53;;;9.80;1.00;;;;;;5085072;28;20433;-70
2022/11/30 08:36:05;;;;;;;34.10;13.60;;;9.70;1.00;;;;;;5078071;28;20557;-70
2022/11/30 08:38:31;;;;;;;30.27;13.00;;;9.80;1.00;;;;;;5092403;28;20423;-70
2022/11/30 08:40:57;;;;;;;35.47;13.27;;;9.80;1.00;;;;;;5077756;28;20429;-70
2022/11/30 08:43:22;;;;;;;29.07;14.10;;;9.80;1.00;;;;;;5087345;28;20187;-70
2022/11/30 08:45:48;;;;;;;30.70;13.57;;;9.80;1.00;;;;;;5078905;28;20932;-70
2022/11/30 08:48:14;;;;;;;33.03;13.10;;;9.80;1.00;;;;;;5083295;28;20575;-70
2022/11/30 08:50:39;;;;;;;36.47;13.90;;;9.80;1.00;;;;;;5076281;28;20190;-70
2022/11/30 08:53:05;;;;;;;34.17;13.60;;;9.80;1.00;;;;;;5080554;28;20227;-70
2022/11/30 08:55:31;;;;;;;32.40;12.70;;;9.80;1.00;;;;;;5083858;28;20187;-70
2022/11/30 08:57:57;;;;;;;26.57;12.20;;;9.90;1.00;;;;;;5077772;28;20192;-70
2022/11/30 09:00:22;;;;;;;29.97;12.77;;;9.90;1.00;;;;;;5074051;28;20673;-70
2022/11/30 09:02:49;;;;;;;33.03;12.63;;;9.90;1.00;;;;;;5077945;28;20433;-70
2022/11/30 09:05:14;;;;;;;35.43;12.80;;;10.00;1.00;;;;;;5081560;28;20183;-70
2022/11/30 09:07:40;;;;;;;32.10;12.60;;;9.90;1.00;;;;;;5082731;28;20420;-71
2022/11/30 09:10:06;;;;;;;33.97;12.30;;;9.90;1.00;;;;;;5084795;28;20452;-70
2022/11/30 09:12:36;;;;;;;31.27;12.83;;;9.90;1.00;;;;;;5090937;28;20186;-70
2022/11/30 09:15:04;;;;;;;35.90;13.17;;;9.90;1.00;;;;;;5083558;28;20444;-70
2022/11/30 09:17:29;;;;;;;27.90;12.63;;;9.90;1.00;;;;;;5075522;28;20498;-70
2022/11/30 09:19:55;;;;;;;29.83;12.33;;;10.00;1.00;;;;;;5079732;28;20433;-70
2022/11/30 09:22:21;;;;;;;32.30;13.40;;;10.00;1.00;;;;;;5074193;28;20204;-70
2022/11/30 09:24:47;;;;;;;29.90;13.43;;;10.10;1.00;;;;;;5080771;28;20187;-70
2022/11/30 09:27:13;;;;;;;33.43;13.20;;;10.10;1.00;;;;;;5077867;28;20457;-69
2022/11/30 09:29:38;;;;;;;34.47;13.37;;;10.10;1.00;;;;;;5079198;28;20225;-70
2022/11/30 09:32:04;;;;;;;42.63;14.57;;;10.20;1.00;;;;;;5076051;28;20660;-70
2022/11/30 09:34:30;;;;;;;42.47;14.80;;;10.20;1.00;;;;;;5076323;28;20209;-70
2022/11/30 09:36:56;;;;;;;40.53;14.63;;;10.30;1.00;;;;;;5078834;28;20449;-70
2022/11/30 09:39:21;;;;;;;38.83;14.57;;;10.40;1.00;;;;;;5077475;28;20219;-70
2022/11/30 09:42:08;;;;;;;36.77;14.47;;;10.50;1.00;;;;;;5083699;28;20187;-70
2022/11/30 09:44:54;;;;;;;36.40;14.43;;;10.50;1.00;;;;;;5083760;28;20323;-70
2022/11/30 09:47:41;;;;;;;36.80;15.17;;;10.60;1.00;;;;;;5049994;28;20965;-70
2022/11/30 09:50:14;;;;;;;41.40;15.23;;;10.60;1.00;;;;;;5046537;28;20426;-71
2022/11/30 09:52:48;;;;;;;39.07;15.03;;;10.60;1.00;;;;;;5051143;28;20503;-71
2022/11/30 09:55:38;;;;;;;42.70;15.67;;;10.60;1.00;;;;;;5048097;28;20431;-70
2022/11/30 09:58:06;;;;;;;46.97;15.77;;;10.60;1.00;;;;;;5043907;28;20433;-69
2022/11/30 10:00:33;;;;;;;49.57;15.50;;;10.70;1.00;;;;;;5027598;28;20777;-70
2022/11/30 10:03:03;;;;;;;41.93;14.93;;;10.70;1.00;;;;;;5021447;28;20882;-70
2022/11/30 10:06:07;;;;;;;48.50;15.70;;;10.70;1.00;;;;;;5053050;28;20812;-70
2022/11/30 10:08:53;;;;;;;47.27;15.30;;;10.70;1.00;;;;;;5040856;28;20494;-70
2022/11/30 10:11:40;;;;;;;44.87;14.77;;;10.70;1.00;;;;;;5038568;28;20437;-70
2022/11/30 10:14:23;;;;;;;45.17;14.90;;;10.60;1.00;;;;;;5046021;28;20430;-70
2022/11/30 10:17:04;;;;;;;43.37;14.57;;;10.60;1.00;;;;;;5046994;28;20517;-70
2022/11/30 10:19:50;;;;;;;36.30;14.23;;;10.50;1.00;;;;;;5049622;28;20530;-70
2022/11/30 10:22:28;;;;;;;35.73;14.53;;;10.50;1.00;;;;;;5050078;28;20421;-70
2022/11/30 10:25:11;;;;;;;33.93;13.33;;;10.50;1.00;;;;;;5072750;28;20460;-70
2022/11/30 10:27:58;;;;;;;34.87;14.50;;;10.40;1.00;;;;;;5087385;28;20433;-70
2022/11/30 10:30:35;;;;;;;27.40;13.03;;;10.40;1.00;;;;;;5083333;28;20464;-70
2022/11/30 10:33:15;;;;;;;27.97;13.90;;;10.30;1.00;;;;;;5078257;28;20813;-71
2022/11/30 10:35:59;;;;;;;25.77;13.33;;;10.30;1.00;;;;;;5075546;28;21046;-71
2022/11/30 10:38:30;;;;;;;27.30;13.27;;;10.20;1.00;;;;;;5087248;28;20813;-70
2022/11/30 10:41:07;;;;;;;27.60;12.83;;;10.20;1.00;;;;;;5080261;28;20425;-71
2022/11/30 10:43:41;;;;;;;23.93;12.43;;;10.10;1.00;;;;;;5088204;28;20532;-70
2022/11/30 10:46:33;;;;;;;22.73;11.80;;;10.10;1.00;;;;;;5080106;28;20460;-70
2022/11/30 10:49:22;;;;;;;21.43;11.97;;;10.10;1.00;;;;;;5073673;28;20455;-70
2022/11/30 10:51:52;;;;;;;20.00;12.00;;;10.10;1.00;;;;;;5072845;28;20467;-70
2022/11/30 10:54:21;;;;;;;21.07;12.17;;;10.10;1.00;;;;;;5086968;28;20505;-70
2022/11/30 10:56:47;;;;;;;23.13;12.10;;;10.10;1.00;;;;;;5079169;28;20940;-70
2022/11/30 10:59:21;;;;;;;23.00;12.97;;;10.10;1.00;;;;;;5076434;28;20443;-70
2022/11/30 11:01:47;;;;;;;20.43;12.00;;;10.10;1.00;;;;;;5082187;28;20194;-70
2022/11/30 11:04:19;;;;;;;20.80;13.50;;;10.20;1.00;;;;;;5080287;28;20434;-70
2022/11/30 11:06:50;;;;;;;23.80;13.63;;;10.20;1.00;;;;;;5083988;28;20301;-70
2022/11/30 11:09:36;;;;;;;26.07;13.63;;;10.30;1.00;;;;;;5083061;28;20421;-70
2022/11/30 11:12:22;;;;;;;21.20;12.37;;;10.30;1.00;;;;;;5074185;28;20486;-70
2022/11/30 11:15:06;;;;;;;25.80;14.07;;;10.30;1.00;;;;;;5081149;28;20478;-70
2022/11/30 11:17:33;;;;;;;26.83;13.53;;;10.20;1.00;;;;;;5074643;28;20490;-70
2022/11/30 11:19:58;;;;;;;21.13;12.97;;;10.30;1.00;;;;;;5084292;28;20462;-70
2022/11/30 11:22:26;;;;;;;24.13;12.50;;;10.30;1.00;;;;;;5080344;28;20474;-70
2022/11/30 11:25:23;;;;;;;23.20;12.87;;;10.30;1.00;;;;;;5088745;28;20216;-70
2022/11/30 11:27:56;;;;;;;23.53;13.00;;;10.40;1.00;;;;;;5073924;28;20420;-78
2022/11/30 11:30:30;;;;;;;28.33;13.77;;;10.50;1.00;;;;;;5076075;28;20526;-78
2022/11/30 11:33:01;;;;;;;21.60;13.27;;;10.50;1.00;;;;;;5073442;28;20523;-79
2022/11/30 11:36:20;;;;;;;26.27;13.70;;;10.50;1.00;;;;;;5077075;28;20422;-77
2022/11/30 11:38:57;;;;;;;21.23;12.53;;;10.60;1.00;;;;;;5078190;28;20428;-77
2022/11/30 11:41:36;;;;;;;21.93;12.70;;;10.60;1.00;;;;;;5082902;28;20927;-77
2022/11/30 11:44:22;;;;;;;22.40;12.70;;;10.60;1.00;;;;;;5087179;28;20990;-85
2022/11/30 11:54:26;;;;;;;23.93;13.53;;;10.60;1.00;;;;;;5082509;28;20429;-84
2022/11/30 11:56:53;;;;;;;23.43;12.90;;;10.50;1.00;;;;;;4985688;28;20446;-76
2022/11/30 12:06:09;;;;;;;26.30;13.80;;;10.50;1.00;;;;;;5012741;28;20526;-84
2022/11/30 12:15:17;;;;;;;26.07;14.13;;;10.90;1.00;;;;;;5007007;28;20415;-84
2022/11/30 12:18:05;;;;;;;28.17;13.53;;;11.00;1.00;;;;;;5014285;28;20423;-84
2022/11/30 12:21:16;;;;;;;28.53;13.87;;;11.00;1.00;;;;;;5005485;28;20261;-83
2022/11/30 12:27:26;;;;;;;28.33;12.97;;;11.10;1.00;;;;;;4953958;28;20541;-84
2022/11/30 12:30:29;;;;;;;28.90;12.83;;;11.10;1.00;;;;;;4954531;28;20461;-78
2022/11/30 12:33:42;;;;;;;26.90;13.03;;;11.10;1.00;;;;;;5025885;28;20422;-78
2022/11/30 12:39:51;;;;;;;24.90;12.50;;;11.00;1.00;;;;;;4994711;28;20447;-78
2022/11/30 12:42:28;;;;;;;32.70;14.53;;;11.00;1.00;;;;;;4987444;28;20452;-78
2022/11/30 12:45:22;;;;;;;28.43;13.40;;;11.00;1.00;;;;;;4990940;28;20514;-77
2022/11/30 12:48:21;;;;;;;30.97;13.87;;;10.90;1.00;;;;;;4994813;28;20429;-78
2022/11/30 12:51:25;;;;;;;26.90;12.60;;;10.80;1.00;;;;;;4983433;28;20956;-77
2022/11/30 12:54:17;;;;;;;27.80;13.67;;;10.70;1.00;;;;;;4994562;28;20424;-77
2022/11/30 12:56:50;;;;;;;28.23;12.43;;;10.70;1.00;;;;;;4982749;28;20937;-78
2022/11/30 13:06:04;;;;;;;28.27;13.10;;;10.70;1.00;;;;;;5046107;28;20854;-84
2022/11/30 13:08:33;;;;;;;32.63;14.60;;;10.60;1.00;;;;;;5040118;28;20428;-83
2022/11/30 13:14:44;;;;;;;27.23;13.70;;;10.60;1.00;;;;;;5095270;28;20420;-84
2022/11/30 13:24:21;;;;;;;28.93;13.63;;;10.70;1.00;;;;;;5078377;28;20398;-83
2022/11/30 13:27:12;;;;;;;28.80;13.70;;;10.60;1.00;;;;;;5078692;28;20456;-84
2022/11/30 13:29:47;;;;;;;28.60;12.90;;;10.50;1.00;;;;;;5079126;28;20563;-78
2022/11/30 13:32:15;;;;;;;28.97;12.10;;;10.50;1.00;;;;;;5086276;28;20436;-77
2022/11/30 13:35:29;;;;;;;26.50;12.83;;;10.40;1.00;;;;;;5087119;28;20437;-77
2022/11/30 13:38:18;;;;;;;28.50;12.57;;;10.40;1.00;;;;;;5038329;28;20520;-78
2022/11/30 13:41:02;;;;;;;29.70;13.70;;;10.40;1.00;;;;;;5079408;28;20783;-77
2022/11/30 13:43:45;;;;;;;33.10;14.00;;;10.50;1.00;;;;;;5075200;28;20493;-80
2022/11/30 13:46:22;;;;;;;34.83;13.90;;;10.60;1.00;;;;;;5076154;28;20460;-83
2022/11/30 13:49:20;;;;;;;29.20;13.43;;;10.60;1.00;;;;;;5081000;28;20425;-83
2022/11/30 13:51:51;;;;;;;33.37;14.00;;;10.60;1.00;;;;;;5012053;28;20461;-74
2022/11/30 13:54:49;;;;;;;29.60;13.43;;;10.60;1.00;;;;;;4987341;28;20923;-74
2022/11/30 13:57:28;;;;;;;31.70;13.90;;;10.70;1.00;;;;;;5004155;28;20464;-81
2022/11/30 14:00:23;;;;;;;31.93;14.17;;;10.70;1.00;;;;;;4993613;28;20462;-76
2022/11/30 14:02:53;;;;;;;33.90;14.30;;;10.70;1.00;;;;;;5012450;28;20444;-76
2022/11/30 14:05:51;;;;;;;28.20;13.30;;;10.70;1.00;;;;;;5011607;28;20442;-77
2022/11/30 14:08:35;;;;;;;32.90;14.17;;;10.70;1.00;;;;;;5005205;28;20474;-77
2022/11/30 14:11:25;;;;;;;26.70;13.20;;;10.70;1.00;;;;;;5005662;28;20467;-77
2022/11/30 14:14:36;;;;;;;27.60;13.40;;;10.70;1.00;;;;;;4992935;28;20487;-77
2022/11/30 14:17:41;;;;;;;28.70;12.47;;;10.70;1.00;;;;;;4999201;28;20428;-85
2022/11/30 14:20:51;;;;;;;25.50;12.17;;;10.60;1.00;;;;;;5003095;28;20531;-85
2022/11/30 14:23:30;;;;;;;28.70;13.73;;;10.60;1.00;;;;;;5012207;28;20440;-86
2022/11/30 14:26:39;;;;;;;35.30;13.50;;;10.60;1.00;;;;;;5008474;28;20860;-86
2022/11/30 14:29:15;;;;;;;33.23;14.67;;;10.60;1.00;;;;;;5065731;28;20531;-84
2022/11/30 14:31:57;;;;;;;30.73;14.93;;;10.50;1.00;;;;;;5081741;28;20411;-79
2022/11/30 14:34:47;;;;;;;26.90;13.60;;;10.50;1.00;;;;;;5083456;28;20501;-79
2022/11/30 14:37:28;;;;;;;27.70;13.70;;;10.40;1.00;;;;;;5079939;28;20433;-77
2022/11/30 14:39:57;;;;;;;24.40;13.13;;;10.40;1.00;;;;;;5080350;28;20428;-78
2022/11/30 14:42:34;;;;;;;30.37;14.27;;;10.40;1.00;;;;;;5076050;28;20475;-78
2022/11/30 14:45:51;;;;;;;23.33;12.90;;;10.40;1.00;;;;;;5085131;28;20420;-85
2022/11/30 14:48:21;;;;;;;28.07;12.80;;;10.30;1.00;;;;;;5073573;28;20512;-86
2022/11/30 15:01:25;;;;;;;27.30;13.03;;;10.10;1.00;;;;;;5078531;28;20430;-86
2022/11/30 15:03:55;;;;;;;34.60;15.27;;;10.10;1.00;;;;;;5079479;28;20420;-86
2022/11/30 15:06:51;;;;;;;27.47;13.40;;;10.00;1.00;;;;;;5088233;28;20459;-86
2022/11/30 15:09:56;;;;;;;32.03;13.80;;;10.00;1.00;;;;;;5079158;28;20508;-86
2022/11/30 15:12:51;;;;;;;29.77;13.90;;;10.00;1.00;;;;;;5090876;28;20396;-86
2022/11/30 15:15:25;;;;;;;31.90;13.90;;;10.00;1.00;;;;;;5074676;28;20409;-79
2022/11/30 15:17:53;;;;;;;24.13;12.57;;;10.00;1.00;;;;;;5081252;28;20903;-79
2022/11/30 15:20:51;;;;;;;34.20;14.93;;;10.00;1.00;;;;;;5089443;28;20420;-78
2022/11/30 15:23:22;;;;;;;32.57;13.00;;;9.90;1.00;;;;;;5089469;28;20420;-78
2022/11/30 15:26:27;;;;;;;27.73;13.27;;;9.90;1.00;;;;;;5080865;28;20503;-79
2022/11/30 15:29:04;;;;;;;29.70;13.80;;;9.90;1.00;;;;;;5077502;28;20424;-78
2022/11/30 15:31:53;;;;;;;32.60;15.23;;;9.90;1.00;;;;;;5082611;28;20444;-86
2022/11/30 15:37:41;;;;;;;32.83;13.50;;;9.90;1.00;;;;;;5084791;28;20461;-86